Terminal Aerodrome Forecast
Issued by NWS

Home | Current Version | Previous Version | Graphics & Text | Print | Product List | Glossary On
Versions: 1 2 3 4 5 6 7 8 9 10 11 12 13 14 15 16 17 18 19 20 21 22 23 24 25 26
136
FTUS43 KABR 140753 AAA
TAFATY
TAF AMD
KATY 140753Z 1408/1506 34004KT P6SM BKN027 OVC035
      TEMPO 1408/1411 P6SM -FZDZ OVC010
     FM141900 32011KT P6SM OVC025=

USA.gov is the U.S. government's official web portal to all federal, state and local government web resources and services.